sensor_id;sensor_type;location;lat;lon;timestamp;pressure;altitude;pressure_sealevel;temperature;humidity
62634;BME280;48704;50.534;6.442;2023-02-20T00:01:27;96482.78;;;2.67;100.00
62634;BME280;48704;50.534;6.442;2023-02-20T00:03:53;96487.09;;;2.68;100.00
62634;BME280;48704;50.534;6.442;2023-02-20T00:06:18;96483.91;;;2.74;100.00
62634;BME280;48704;50.534;6.442;2023-02-20T00:08:44;96482.31;;;2.80;100.00
62634;BME280;48704;50.534;6.442;2023-02-20T00:11:09;96476.03;;;2.76;100.00
62634;BME280;48704;50.534;6.442;2023-02-20T00:13:34;96470.50;;;2.79;100.00
62634;BME280;48704;50.534;6.442;2023-02-20T00:16:00;96466.25;;;2.71;100.00
62634;BME280;48704;50.534;6.442;2023-02-20T00:18:25;96472.53;;;2.72;100.00
62634;BME280;48704;50.534;6.442;2023-02-20T00:20:50;96468.16;;;2.78;100.00
62634;BME280;48704;50.534;6.442;2023-02-20T00:23:16;96457.16;;;2.78;100.00
62634;BME280;48704;50.534;6.442;2023-02-20T00:25:41;96464.22;;;2.79;100.00
62634;BME280;48704;50.534;6.442;2023-02-20T00:28:06;96457.97;;;2.75;100.00
62634;BME280;48704;50.534;6.442;2023-02-20T00:30:32;96461.47;;;2.79;100.00
62634;BME280;48704;50.534;6.442;2023-02-20T00:32:57;96463.41;;;2.82;100.00
62634;BME280;48704;50.534;6.442;2023-02-20T00:35:24;96448.13;;;2.77;100.00
62634;BME280;48704;50.534;6.442;2023-02-20T00:37:51;96437.47;;;2.79;100.00
62634;BME280;48704;50.534;6.442;2023-02-20T00:40:18;96427.25;;;2.80;100.00
62634;BME280;48704;50.534;6.442;2023-02-20T00:42:44;96429.63;;;2.78;100.00
62634;BME280;48704;50.534;6.442;2023-02-20T00:45:10;96424.50;;;2.80;100.00
62634;BME280;48704;50.534;6.442;2023-02-20T00:47:36;96431.56;;;2.81;100.00
62634;BME280;48704;50.534;6.442;2023-02-20T00:50:01;96430.38;;;2.82;100.00
62634;BME280;48704;50.534;6.442;2023-02-20T00:52:27;96429.19;;;2.83;100.00
62634;BME280;48704;50.534;6.442;2023-02-20T00:54:52;96426.44;;;2.83;100.00
62634;BME280;48704;50.534;6.442;2023-02-20T00:57:17;96421.72;;;2.83;100.00
62634;BME280;48704;50.534;6.442;2023-02-20T00:59:43;96428.00;;;2.84;100.00
62634;BME280;48704;50.534;6.442;2023-02-20T01:02:08;96430.38;;;2.82;100.00
62634;BME280;48704;50.534;6.442;2023-02-20T01:04:33;96417.06;;;2.77;100.00
62634;BME280;48704;50.534;6.442;2023-02-20T01:06:59;96422.53;;;2.80;100.00
62634;BME280;48704;50.534;6.442;2023-02-20T01:09:24;96425.69;;;2.79;100.00
62634;BME280;48704;50.534;6.442;2023-02-20T01:11:52;96431.16;;;2.82;100.00
62634;BME280;48704;50.534;6.442;2023-02-20T01:14:18;96426.09;;;2.77;100.00
62634;BME280;48704;50.534;6.442;2023-02-20T01:16:45;96428.06;;;2.77;100.00
62634;BME280;48704;50.534;6.442;2023-02-20T01:19:10;96440.66;;;2.74;100.00
62634;BME280;48704;50.534;6.442;2023-02-20T01:21:36;96438.25;;;2.80;100.00
62634;BME280;48704;50.534;6.442;2023-02-20T01:24:01;96420.97;;;2.79;100.00
62634;BME280;48704;50.534;6.442;2023-02-20T01:26:26;96421.78;;;2.76;100.00
62634;BME280;48704;50.534;6.442;2023-02-20T01:28:52;96420.19;;;2.79;100.00
62634;BME280;48704;50.534;6.442;2023-02-20T01:31:17;96432.81;;;2.73;100.00
62634;BME280;48704;50.534;6.442;2023-02-20T01:33:42;96427.31;;;2.73;100.00
62634;BME280;48704;50.534;6.442;2023-02-20T01:36:09;96423.41;;;2.70;100.00
62634;BME280;48704;50.534;6.442;2023-02-20T01:38:34;96423.44;;;2.66;100.00
62634;BME280;48704;50.534;6.442;2023-02-20T01:41:00;96421.84;;;2.65;100.00
62634;BME280;48704;50.534;6.442;2023-02-20T01:43:25;96424.63;;;2.65;100.00
62634;BME280;48704;50.534;6.442;2023-02-20T01:45:51;96420.38;;;2.57;100.00
62634;BME280;48704;50.534;6.442;2023-02-20T01:48:23;96427.78;;;2.60;100.00
62634;BME280;48704;50.534;6.442;2023-02-20T01:50:51;96413.69;;;2.58;100.00
62634;BME280;48704;50.534;6.442;2023-02-20T01:53:20;96416.78;;;2.60;100.00
62634;BME280;48704;50.534;6.442;2023-02-20T01:55:58;96398.38;;;2.57;100.00
62634;BME280;48704;50.534;6.442;2023-02-20T01:58:32;96408.59;;;2.57;100.00
62634;BME280;48704;50.534;6.442;2023-02-20T02:01:02;96400.75;;;2.55;100.00
62634;BME280;48704;50.534;6.442;2023-02-20T02:03:32;96400.03;;;2.44;100.00
62634;BME280;48704;50.534;6.442;2023-02-20T02:06:02;96398.38;;;2.57;100.00
62634;BME280;48704;50.534;6.442;2023-02-20T02:08:30;96399.59;;;2.49;100.00
62634;BME280;48704;50.534;6.442;2023-02-20T02:11:07;96400.75;;;2.55;100.00
62634;BME280;48704;50.534;6.442;2023-02-20T02:13:34;96399.59;;;2.53;100.00
62634;BME280;48704;50.534;6.442;2023-02-20T02:30:27;96384.28;;;2.48;100.00
62634;BME280;48704;50.534;6.442;2023-02-20T02:39:02;96384.25;;;2.55;100.00
62634;BME280;48704;50.534;6.442;2023-02-20T02:41:52;96370.09;;;2.53;100.00
62634;BME280;48704;50.534;6.442;2023-02-20T02:44:39;96368.16;;;2.50;100.00
62634;BME280;48704;50.534;6.442;2023-02-20T02:47:11;96365.25;;;2.64;100.00
62634;BME280;48704;50.534;6.442;2023-02-20T02:49:47;96362.13;;;2.62;100.00
62634;BME280;48704;50.534;6.442;2023-02-20T02:52:17;96357.38;;;2.66;100.00
62634;BME280;48704;50.534;6.442;2023-02-20T02:55:07;96362.13;;;2.62;100.00
62634;BME280;48704;50.534;6.442;2023-02-20T02:57:33;96361.13;;;2.46;100.00
62634;BME280;48704;50.534;6.442;2023-02-20T03:00:08;96363.69;;;2.63;100.00
62634;BME280;48704;50.534;6.442;2023-02-20T03:02:45;96338.47;;;2.72;100.00
62634;BME280;48704;50.534;6.442;2023-02-20T03:05:14;96347.94;;;2.67;100.00
62634;BME280;48704;50.534;6.442;2023-02-20T03:07:43;96340.50;;;2.64;100.00
62634;BME280;48704;50.534;6.442;2023-02-20T03:10:12;96344.81;;;2.65;100.00
62634;BME280;48704;50.534;6.442;2023-02-20T03:12:47;96345.56;;;2.69;100.00
62634;BME280;48704;50.534;6.442;2023-02-20T03:15:22;96354.19;;;2.72;100.00
62634;BME280;48704;50.534;6.442;2023-02-20T03:21:02;96326.63;;;2.79;100.00
62634;BME280;48704;50.534;6.442;2023-02-20T03:23:37;96318.78;;;2.74;100.00
62634;BME280;48704;50.534;6.442;2023-02-20T03:26:08;96314.00;;;2.81;100.00
62634;BME280;48704;50.534;6.442;2023-02-20T03:28:40;96308.53;;;2.78;100.00
62634;BME280;48704;50.534;6.442;2023-02-20T03:31:14;96317.91;;;2.84;100.00
62634;BME280;48704;50.534;6.442;2023-02-20T03:34:01;96306.50;;;2.85;100.00
62634;BME280;48704;50.534;6.442;2023-02-20T03:36:53;96294.69;;;2.85;100.00
62634;BME280;48704;50.534;6.442;2023-02-20T03:39:47;96293.50;;;2.86;100.00
62634;BME280;48704;50.534;6.442;2023-02-20T03:42:36;96289.63;;;2.80;100.00
62634;BME280;48704;50.534;6.442;2023-02-20T03:45:22;96282.66;;;2.72;100.00
62634;BME280;48704;50.534;6.442;2023-02-20T03:47:52;96286.97;;;2.73;100.00
62634;BME280;48704;50.534;6.442;2023-02-20T03:50:19;96291.69;;;2.72;100.00
62634;BME280;48704;50.534;6.442;2023-02-20T03:53:03;96279.53;;;2.69;100.00
62634;BME280;48704;50.534;6.442;2023-02-20T03:55:29;96279.53;;;2.69;100.00
62634;BME280;48704;50.534;6.442;2023-02-20T03:57:56;96284.28;;;2.65;100.00
62634;BME280;48704;50.534;6.442;2023-02-20T04:00:26;96278.78;;;2.65;100.00
62634;BME280;48704;50.534;6.442;2023-02-20T04:02:56;96270.91;;;2.67;100.00
62634;BME280;48704;50.534;6.442;2023-02-20T04:05:26;96266.19;;;2.68;100.00
62634;BME280;48704;50.534;6.442;2023-02-20T04:07:59;96273.97;;;2.73;100.00
62634;BME280;48704;50.534;6.442;2023-02-20T04:10:34;96275.94;;;2.73;100.00
62634;BME280;48704;50.534;6.442;2023-02-20T04:13:00;96273.16;;;2.76;100.00
62634;BME280;48704;50.534;6.442;2023-02-20T04:15:27;96262.16;;;2.76;100.00
62634;BME280;48704;50.534;6.442;2023-02-20T04:20:21;96277.88;;;2.76;100.00
62634;BME280;48704;50.534;6.442;2023-02-20T04:22:47;96276.25;;;2.82;100.00
62634;BME280;48704;50.534;6.442;2023-02-20T04:25:20;96271.53;;;2.82;100.00
62634;BME280;48704;50.534;6.442;2023-02-20T04:27:50;96274.28;;;2.82;100.00
62634;BME280;48704;50.534;6.442;2023-02-20T04:30:15;96272.28;;;2.86;100.00
62634;BME280;48704;50.534;6.442;2023-02-20T04:32:41;96274.66;;;2.84;100.00
62634;BME280;48704;50.534;6.442;2023-02-20T04:35:08;96278.47;;;2.94;100.00
62634;BME280;48704;50.534;6.442;2023-02-20T04:37:39;96279.25;;;2.94;100.00
62634;BME280;48704;50.534;6.442;2023-02-20T04:40:05;96283.22;;;2.93;100.00
62634;BME280;48704;50.534;6.442;2023-02-20T04:42:30;96284.88;;;2.84;100.00
62634;BME280;48704;50.534;6.442;2023-02-20T04:44:56;96280.94;;;2.85;100.00
62634;BME280;48704;50.534;6.442;2023-02-20T04:47:21;96288.13;;;2.75;100.00
62634;BME280;48704;50.534;6.442;2023-02-20T04:49:46;96282.72;;;2.64;100.00
62634;BME280;48704;50.534;6.442;2023-02-20T04:52:12;96290.69;;;2.55;100.00
62634;BME280;48704;50.534;6.442;2023-02-20T04:54:37;96287.19;;;2.51;100.00
62634;BME280;48704;50.534;6.442;2023-02-20T04:57:03;96286.78;;;2.53;100.00
62634;BME280;48704;50.534;6.442;2023-02-20T04:59:28;96285.25;;;2.48;100.00
62634;BME280;48704;50.534;6.442;2023-02-20T05:01:54;96292.41;;;2.39;100.00
62634;BME280;48704;50.534;6.442;2023-02-20T05:04:20;96289.31;;;2.33;100.00
62634;BME280;48704;50.534;6.442;2023-02-20T05:06:49;96290.97;;;2.23;100.00
62634;BME280;48704;50.534;6.442;2023-02-20T05:09:18;96286.34;;;2.17;100.00
62634;BME280;48704;50.534;6.442;2023-02-20T05:11:44;96291.47;;;2.15;100.00
62634;BME280;48704;50.534;6.442;2023-02-20T05:14:09;96290.72;;;2.11;100.00
62634;BME280;48704;50.534;6.442;2023-02-20T05:16:36;96284.81;;;2.12;100.00
62634;BME280;48704;50.534;6.442;2023-02-20T05:19:03;96292.66;;;2.14;100.00
62634;BME280;48704;50.534;6.442;2023-02-20T05:21:28;96283.22;;;2.15;100.00
62634;BME280;48704;50.534;6.442;2023-02-20T05:24:12;96284.78;;;2.16;100.00
62634;BME280;48704;50.534;6.442;2023-02-20T05:26:38;96275.34;;;2.17;100.00
62634;BME280;48704;50.534;6.442;2023-02-20T05:29:04;96280.03;;;2.20;100.00
62634;BME280;48704;50.534;6.442;2023-02-20T05:31:29;96276.81;;;2.25;100.00
62634;BME280;48704;50.534;6.442;2023-02-20T05:33:55;96285.44;;;2.27;100.00
62634;BME280;48704;50.534;6.442;2023-02-20T05:36:20;96275.19;;;2.31;100.00
62634;BME280;48704;50.534;6.442;2023-02-20T05:38:45;96274.75;;;2.36;100.00
62634;BME280;48704;50.534;6.442;2023-02-20T05:41:16;96282.13;;;2.46;100.00
62634;BME280;48704;50.534;6.442;2023-02-20T05:43:42;96271.09;;;2.50;100.00
62634;BME280;48704;50.534;6.442;2023-02-20T05:46:07;96274.94;;;2.59;100.00
62634;BME280;48704;50.534;6.442;2023-02-20T05:48:33;96273.28;;;2.65;100.00
62634;BME280;48704;50.534;6.442;2023-02-20T05:50:58;96270.53;;;2.65;100.00
62634;BME280;48704;50.534;6.442;2023-02-20T05:53:27;96261.41;;;2.72;100.00
62634;BME280;48704;50.534;6.442;2023-02-20T05:55:53;96269.19;;;2.81;100.00
62634;BME280;48704;50.534;6.442;2023-02-20T05:58:18;96267.56;;;2.87;100.00
62634;BME280;48704;50.534;6.442;2023-02-20T06:00:43;96269.94;;;2.85;100.00
62634;BME280;48704;50.534;6.442;2023-02-20T06:03:09;96256.50;;;2.90;100.00
62634;BME280;48704;50.534;6.442;2023-02-20T06:05:35;96257.34;;;2.84;100.00
62634;BME280;48704;50.534;6.442;2023-02-20T06:08:00;96247.53;;;2.83;100.00
62634;BME280;48704;50.534;6.442;2023-02-20T06:10:26;96258.25;;;2.74;100.00
62634;BME280;48704;50.534;6.442;2023-02-20T06:12:51;96253.50;;;2.78;100.00
62634;BME280;48704;50.534;6.442;2023-02-20T06:15:17;96249.56;;;2.79;100.00
62634;BME280;48704;50.534;6.442;2023-02-20T06:17:42;96250.09;;;2.63;100.00
62634;BME280;48704;50.534;6.442;2023-02-20T06:20:07;96260.34;;;2.62;100.00
62634;BME280;48704;50.534;6.442;2023-02-20T06:22:33;96265.53;;;2.57;100.00
62634;BME280;48704;50.534;6.442;2023-02-20T06:24:58;96261.66;;;2.51;100.00
62634;BME280;48704;50.534;6.442;2023-02-20T06:27:23;96264.44;;;2.47;100.00
62634;BME280;48704;50.534;6.442;2023-02-20T06:29:49;96260.94;;;2.43;100.00
62634;BME280;48704;50.534;6.442;2023-02-20T06:32:15;96262.56;;;2.37;100.00
62634;BME280;48704;50.534;6.442;2023-02-20T06:34:42;96267.28;;;2.37;100.00
62634;BME280;48704;50.534;6.442;2023-02-20T06:37:08;96265.66;;;2.43;100.00
62634;BME280;48704;50.534;6.442;2023-02-20T06:39:33;96266.47;;;2.40;100.00
62634;BME280;48704;50.534;6.442;2023-02-20T06:41:58;96271.94;;;2.43;100.00
62634;BME280;48704;50.534;6.442;2023-02-20T06:44:24;96255.81;;;2.45;100.00
62634;BME280;48704;50.534;6.442;2023-02-20T06:46:49;96257.31;;;2.53;100.00
62634;BME280;48704;50.534;6.442;2023-02-20T06:49:14;96260.41;;;2.59;100.00
62634;BME280;48704;50.534;6.442;2023-02-20T06:51:40;96267.88;;;2.58;100.00
62634;BME280;48704;50.534;6.442;2023-02-20T06:54:06;96262.28;;;2.65;100.00
62634;BME280;48704;50.534;6.442;2023-02-20T06:56:33;96259.16;;;2.63;100.00
62634;BME280;48704;50.534;6.442;2023-02-20T06:59:00;96262.19;;;2.73;100.00
62634;BME280;48704;50.534;6.442;2023-02-20T07:01:28;96261.91;;;2.63;100.00
62634;BME280;48704;50.534;6.442;2023-02-20T07:03:55;96266.09;;;2.75;100.00
62634;BME280;48704;50.534;6.442;2023-02-20T07:06:21;96270.44;;;2.73;100.00
62634;BME280;48704;50.534;6.442;2023-02-20T07:08:47;96273.25;;;2.69;100.00
62634;BME280;48704;50.534;6.442;2023-02-20T07:11:13;96264.66;;;2.63;100.00
62634;BME280;48704;50.534;6.442;2023-02-20T07:13:39;96256.75;;;2.65;100.00
62634;BME280;48704;50.534;6.442;2023-02-20T07:16:04;96265.44;;;2.64;100.00
62634;BME280;48704;50.534;6.442;2023-02-20T07:18:30;96263.19;;;2.55;100.00
62634;BME280;48704;50.534;6.442;2023-02-20T07:20:55;96258.50;;;2.52;100.00
62634;BME280;48704;50.534;6.442;2023-02-20T07:23:22;96266.81;;;2.45;100.00
62634;BME280;48704;50.534;6.442;2023-02-20T07:25:47;96246.03;;;2.41;100.00
62634;BME280;48704;50.534;6.442;2023-02-20T07:28:14;96251.56;;;2.37;100.00
62634;BME280;48704;50.534;6.442;2023-02-20T07:30:39;96257.13;;;2.30;100.00
62634;BME280;48704;50.534;6.442;2023-02-20T07:33:05;96259.00;;;2.40;100.00
62634;BME280;48704;50.534;6.442;2023-02-20T07:35:31;96249.94;;;2.43;100.00
62634;BME280;48704;50.534;6.442;2023-02-20T07:37:56;96243.53;;;2.57;100.00
62634;BME280;48704;50.534;6.442;2023-02-20T07:40:22;96256.03;;;2.61;100.00
62634;BME280;48704;50.534;6.442;2023-02-20T07:42:47;96253.94;;;2.73;100.00
62634;BME280;48704;50.534;6.442;2023-02-20T07:45:13;96250.25;;;2.86;100.00
62634;BME280;48704;50.534;6.442;2023-02-20T07:47:38;96249.69;;;2.98;100.00
62634;BME280;48704;50.534;6.442;2023-02-20T07:50:04;96249.19;;;3.07;100.00
62634;BME280;48704;50.534;6.442;2023-02-20T07:52:29;96245.94;;;3.16;100.00
62634;BME280;48704;50.534;6.442;2023-02-20T07:54:54;96241.13;;;3.23;100.00
62634;BME280;48704;50.534;6.442;2023-02-20T07:57:20;96233.16;;;3.32;100.00
62634;BME280;48704;50.534;6.442;2023-02-20T07:59:45;96253.41;;;3.46;100.00
62634;BME280;48704;50.534;6.442;2023-02-20T08:02:10;96228.94;;;3.51;100.00
62634;BME280;48704;50.534;6.442;2023-02-20T08:04:36;96250.09;;;3.58;100.00
62634;BME280;48704;50.534;6.442;2023-02-20T08:07:01;96237.81;;;3.62;100.00
62634;BME280;48704;50.534;6.442;2023-02-20T08:09:26;96232.50;;;3.75;100.00
62634;BME280;48704;50.534;6.442;2023-02-20T08:11:52;96235.50;;;3.84;100.00
62634;BME280;48704;50.534;6.442;2023-02-20T08:14:17;96233.38;;;3.95;100.00
62634;BME280;48704;50.534;6.442;2023-02-20T08:16:42;96241.03;;;4.08;100.00
62634;BME280;48704;50.534;6.442;2023-02-20T08:19:08;96249.47;;;4.20;100.00
62634;BME280;48704;50.534;6.442;2023-02-20T08:21:33;96238.69;;;4.29;100.00
62634;BME280;48704;50.534;6.442;2023-02-20T08:23:58;96254.41;;;4.32;100.00
62634;BME280;48704;50.534;6.442;2023-02-20T08:26:24;96245.59;;;4.41;100.00
62634;BME280;48704;50.534;6.442;2023-02-20T08:28:50;96260.59;;;4.40;100.00
62634;BME280;48704;50.534;6.442;2023-02-20T08:31:17;96277.88;;;4.44;100.00
62634;BME280;48704;50.534;6.442;2023-02-20T08:33:42;96263.91;;;4.51;100.00
62634;BME280;48704;50.534;6.442;2023-02-20T08:36:08;96263.72;;;4.62;100.00
62634;BME280;48704;50.534;6.442;2023-02-20T08:38:37;96272.38;;;4.64;100.00
62634;BME280;48704;50.534;6.442;2023-02-20T08:41:09;96267.13;;;4.69;100.00
62634;BME280;48704;50.534;6.442;2023-02-20T08:43:36;96278.06;;;4.77;100.00
62634;BME280;48704;50.534;6.442;2023-02-20T08:46:06;96264.59;;;4.79;100.00
62634;BME280;48704;50.534;6.442;2023-02-20T08:48:32;96279.75;;;4.70;100.00
62634;BME280;48704;50.534;6.442;2023-02-20T08:50:58;96279.63;;;4.78;100.00
62634;BME280;48704;50.534;6.442;2023-02-20T08:53:23;96273.44;;;4.90;100.00
62634;BME280;48704;50.534;6.442;2023-02-20T08:55:49;96281.84;;;4.83;100.00
62634;BME280;48704;50.534;6.442;2023-02-20T08:58:18;96281.38;;;4.88;100.00
62634;BME280;48704;50.534;6.442;2023-02-20T09:00:44;96285.13;;;4.78;100.00
62634;BME280;48704;50.534;6.442;2023-02-20T09:03:09;96286.03;;;4.71;100.00
62634;BME280;48704;50.534;6.442;2023-02-20T09:05:35;96280.09;;;4.73;100.00
62634;BME280;48704;50.534;6.442;2023-02-20T09:08:01;96298.59;;;4.76;100.00
62634;BME280;48704;50.534;6.442;2023-02-20T09:10:27;96286.19;;;4.84;100.00
62634;BME280;48704;50.534;6.442;2023-02-20T09:12:52;96301.47;;;4.88;100.00
62634;BME280;48704;50.534;6.442;2023-02-20T09:15:17;96300.22;;;4.93;100.00
62634;BME280;48704;50.534;6.442;2023-02-20T09:17:52;96296.47;;;5.03;100.00
62634;BME280;48704;50.534;6.442;2023-02-20T09:20:19;96313.53;;;4.98;100.00
62634;BME280;48704;50.534;6.442;2023-02-20T09:22:46;96316.09;;;5.09;100.00
62634;BME280;48704;50.534;6.442;2023-02-20T09:25:12;96317.66;;;5.29;100.00
62634;BME280;48704;50.534;6.442;2023-02-20T09:27:37;96307.44;;;5.26;100.00
62634;BME280;48704;50.534;6.442;2023-02-20T09:30:03;96310.78;;;5.37;100.00
62634;BME280;48704;50.534;6.442;2023-02-20T09:32:29;96301.00;;;5.53;100.00
62634;BME280;48704;50.534;6.442;2023-02-20T09:34:54;96299.66;;;5.77;100.00
62634;BME280;48704;50.534;6.442;2023-02-20T09:37:19;96294.84;;;5.81;100.00
62634;BME280;48704;50.534;6.442;2023-02-20T09:39:45;96291.00;;;6.11;100.00
62634;BME280;48704;50.534;6.442;2023-02-20T09:44:48;96300.00;;;6.64;100.00
62634;BME280;48704;50.534;6.442;2023-02-20T09:47:26;96293.97;;;7.11;100.00
62634;BME280;48704;50.534;6.442;2023-02-20T09:49:58;96293.16;;;7.26;100.00
62634;BME280;48704;50.534;6.442;2023-02-20T09:52:26;96295.91;;;7.68;100.00
62634;BME280;48704;50.534;6.442;2023-02-20T09:54:57;96300.16;;;7.72;100.00
62634;BME280;48704;50.534;6.442;2023-02-20T09:57:26;96324.69;;;7.99;100.00
62634;BME280;48704;50.534;6.442;2023-02-20T09:59:58;96306.38;;;8.27;100.00
62634;BME280;48704;50.534;6.442;2023-02-20T10:02:30;96303.56;;;8.65;100.00
62634;BME280;48704;50.534;6.442;2023-02-20T10:05:01;96309.31;;;8.84;100.00
62634;BME280;48704;50.534;6.442;2023-02-20T10:07:46;96285.94;;;8.47;100.00
62634;BME280;48704;50.534;6.442;2023-02-20T10:15:24;96285.94;;;9.16;99.80
62634;BME280;48704;50.534;6.442;2023-02-20T10:18:15;96290.56;;;8.97;100.00
62634;BME280;48704;50.534;6.442;2023-02-20T10:23:45;96292.66;;;9.71;98.43
62634;BME280;48704;50.534;6.442;2023-02-20T10:26:42;96278.16;;;9.76;94.11
62634;BME280;48704;50.534;6.442;2023-02-20T10:29:23;96279.16;;;9.38;96.10
62634;BME280;48704;50.534;6.442;2023-02-20T10:31:59;96278.59;;;9.75;95.89
62634;BME280;48704;50.534;6.442;2023-02-20T10:34:38;96286.22;;;9.52;96.84
62634;BME280;48704;50.534;6.442;2023-02-20T10:37:09;96271.47;;;9.43;98.71
62634;BME280;48704;50.534;6.442;2023-02-20T10:39:37;96268.34;;;9.93;94.01
62634;BME280;48704;50.534;6.442;2023-02-20T10:42:39;96274.94;;;10.18;96.81
62634;BME280;48704;50.534;6.442;2023-02-20T10:45:17;96273.13;;;9.93;95.77
62634;BME280;48704;50.534;6.442;2023-02-20T10:47:49;96267.81;;;10.17;95.73
62634;BME280;48704;50.534;6.442;2023-02-20T10:50:23;96278.38;;;9.91;96.86
62634;BME280;48704;50.534;6.442;2023-02-20T10:52:57;96286.00;;;9.99;95.97
62634;BME280;48704;50.534;6.442;2023-02-20T10:55:28;96268.53;;;9.99;96.85
62634;BME280;48704;50.534;6.442;2023-02-20T10:58:02;96273.09;;;10.64;94.95
62634;BME280;48704;50.534;6.442;2023-02-20T11:00:34;96268.47;;;10.21;95.05
62634;BME280;48704;50.534;6.442;2023-02-20T11:03:16;96264.81;;;10.42;92.41
62634;BME280;48704;50.534;6.442;2023-02-20T11:05:49;96269.56;;;9.92;97.12
62634;BME280;48704;50.534;6.442;2023-02-20T11:08:15;96269.00;;;10.47;94.51
62634;BME280;48704;50.534;6.442;2023-02-20T11:10:46;96268.91;;;10.68;92.52
62634;BME280;48704;50.534;6.442;2023-02-20T11:13:15;96270.38;;;10.33;93.48
62634;BME280;48704;50.534;6.442;2023-02-20T11:15:43;96267.53;;;10.73;95.35
62634;BME280;48704;50.534;6.442;2023-02-20T11:18:41;96266.59;;;10.76;91.71
62634;BME280;48704;50.534;6.442;2023-02-20T11:21:07;96256.22;;;10.67;90.17
62634;BME280;48704;50.534;6.442;2023-02-20T11:23:41;96254.34;;;10.83;92.26
62634;BME280;48704;50.534;6.442;2023-02-20T11:28:38;96240.72;;;11.39;91.53
62634;BME280;48704;50.534;6.442;2023-02-20T11:31:05;96248.09;;;11.61;89.42
62634;BME280;48704;50.534;6.442;2023-02-20T11:33:45;96245.63;;;11.81;89.69
62634;BME280;48704;50.534;6.442;2023-02-20T11:36:23;96236.41;;;11.90;92.50
62634;BME280;48704;50.534;6.442;2023-02-20T11:38:56;96242.66;;;11.76;93.46
62634;BME280;48704;50.534;6.442;2023-02-20T11:41:30;96243.31;;;12.13;89.46
62634;BME280;48704;50.534;6.442;2023-02-20T11:46:29;96233.97;;;12.25;87.79
62634;BME280;48704;50.534;6.442;2023-02-20T11:49:03;96229.94;;;11.75;88.34
62634;BME280;48704;50.534;6.442;2023-02-20T11:51:40;96234.69;;;12.58;86.85
62634;BME280;48704;50.534;6.442;2023-02-20T11:57:00;96230.41;;;12.48;87.46
62634;BME280;48704;50.534;6.442;2023-02-20T12:04:59;96212.53;;;12.69;87.89
62634;BME280;48704;50.534;6.442;2023-02-20T12:07:33;96200.03;;;12.80;86.67
62634;BME280;48704;50.534;6.442;2023-02-20T12:10:04;96202.53;;;12.78;86.20
62634;BME280;48704;50.534;6.442;2023-02-20T12:12:34;96190.28;;;11.52;92.16
62634;BME280;48704;50.534;6.442;2023-02-20T12:14:59;96192.44;;;12.09;91.78
62634;BME280;48704;50.534;6.442;2023-02-20T12:17:37;96178.81;;;12.01;92.13
62634;BME280;48704;50.534;6.442;2023-02-20T12:20:17;96179.38;;;12.15;92.56
62634;BME280;48704;50.534;6.442;2023-02-20T12:23:10;96189.47;;;12.36;91.94
62634;BME280;48704;50.534;6.442;2023-02-20T12:25:58;96180.25;;;12.68;91.29
62634;BME280;48704;50.534;6.442;2023-02-20T12:31:03;96167.75;;;13.17;89.17
62634;BME280;48704;50.534;6.442;2023-02-20T12:37:05;96186.78;;;12.89;91.48
62634;BME280;48704;50.534;6.442;2023-02-20T12:44:54;96151.88;;;13.14;90.72
62634;BME280;48704;50.534;6.442;2023-02-20T12:47:32;96144.34;;;12.91;92.60
62634;BME280;48704;50.534;6.442;2023-02-20T12:55:51;96124.88;;;13.70;89.96
62634;BME280;48704;50.534;6.442;2023-02-20T12:58:26;96144.84;;;13.63;89.63
62634;BME280;48704;50.534;6.442;2023-02-20T13:01:02;96128.09;;;13.83;90.63
62634;BME280;48704;50.534;6.442;2023-02-20T13:03:42;96140.28;;;13.80;90.67
62634;BME280;48704;50.534;6.442;2023-02-20T13:06:13;96140.44;;;13.91;91.51
62634;BME280;48704;50.534;6.442;2023-02-20T13:11:16;96159.03;;;13.74;89.48
62634;BME280;48704;50.534;6.442;2023-02-20T13:14:00;96129.94;;;13.36;92.73
62634;BME280;48704;50.534;6.442;2023-02-20T13:19:31;96114.22;;;13.74;96.65
62634;BME280;48704;50.534;6.442;2023-02-20T13:22:00;96110.78;;;14.20;90.96
62634;BME280;48704;50.534;6.442;2023-02-20T13:24:26;96108.59;;;13.74;92.72
62634;BME280;48704;50.534;6.442;2023-02-20T13:26:54;96102.19;;;13.53;92.58
62634;BME280;48704;50.534;6.442;2023-02-20T13:29:22;96106.63;;;13.60;93.36
62634;BME280;48704;50.534;6.442;2023-02-20T13:31:53;96098.41;;;13.56;95.97
62634;BME280;48704;50.534;6.442;2023-02-20T13:36:49;96106.34;;;13.58;94.09
62634;BME280;48704;50.534;6.442;2023-02-20T13:55:01;96076.03;;;14.12;93.65
62634;BME280;48704;50.534;6.442;2023-02-20T13:57:28;96070.75;;;13.79;97.09
62634;BME280;48704;50.534;6.442;2023-02-20T13:59:58;96077.69;;;13.83;96.18
62634;BME280;48704;50.534;6.442;2023-02-20T14:02:23;96067.38;;;14.10;91.88
62634;BME280;48704;50.534;6.442;2023-02-20T14:05:05;96044.75;;;13.78;93.47
62634;BME280;48704;50.534;6.442;2023-02-20T14:07:32;96046.44;;;13.70;96.03
62634;BME280;48704;50.534;6.442;2023-02-20T14:10:12;96054.31;;;14.07;93.33
62634;BME280;48704;50.534;6.442;2023-02-20T14:12:38;96045.34;;;13.47;93.00
62634;BME280;48704;50.534;6.442;2023-02-20T14:15:05;96049.53;;;13.22;93.09
62634;BME280;48704;50.534;6.442;2023-02-20T14:17:31;96037.94;;;13.29;93.22
62634;BME280;48704;50.534;6.442;2023-02-20T14:19:59;96041.53;;;13.30;93.77
62634;BME280;48704;50.534;6.442;2023-02-20T14:27:38;96022.97;;;13.03;93.12
62634;BME280;48704;50.534;6.442;2023-02-20T14:30:06;96025.06;;;13.37;90.89
62634;BME280;48704;50.534;6.442;2023-02-20T14:32:32;96018.66;;;13.31;92.48
62634;BME280;48704;50.534;6.442;2023-02-20T14:38:06;96028.91;;;13.55;91.06
62634;BME280;48704;50.534;6.442;2023-02-20T14:40:37;96031.72;;;13.55;91.84
62634;BME280;48704;50.534;6.442;2023-02-20T14:43:19;96027.66;;;13.56;89.71
62634;BME280;48704;50.534;6.442;2023-02-20T14:45:47;96026.28;;;14.27;85.24
62634;BME280;48704;50.534;6.442;2023-02-20T14:48:25;96027.47;;;14.20;83.67
62634;BME280;48704;50.534;6.442;2023-02-20T14:53:35;96014.63;;;14.54;79.28